Crevillente, Spain
Current Conditions -  °F | °C
As of 11:00 PM on Saturday 20 Dec 2014 (Local Time) from LEAL Reporting Station
Scattered Clouds Scattered Clouds  
Wind Chill: 52°   Ceiling: Unl
Heat Index: 52°   Visibility: 6mi
Dew Point: 50°   Wind: 2mph
Humidity: 94%   Direction: NA
Pressure: 30.48"   Gusts: NA
Location:  38.25°N, 0.81°W
Report Text: LEAL 202200Z VRB02KT 9999 FEW018 SCT025 11/10 Q1032 NOSIG
Loading
Personal Weather Stations






























Interactive Weather Map New forecast layout! Learn more

10-Day Weather Forecast

Advertisements
Track Severe Weather on mobile